createdAt,value
2018-04-07T00:00:14.113Z,99.90
2018-04-07T00:02:43.004Z,99.90
2018-04-07T00:05:13.179Z,99.90
2018-04-07T00:07:42.067Z,99.90
2018-04-07T00:10:11.721Z,99.90
2018-04-07T00:12:40.916Z,99.90
2018-04-07T00:15:09.825Z,99.90
2018-04-07T00:17:39.486Z,99.90
2018-04-07T00:20:09.203Z,99.90
2018-04-07T00:22:38.112Z,99.90
2018-04-07T00:25:07.823Z,99.90
2018-04-07T00:27:37.491Z,99.90
2018-04-07T00:30:06.391Z,99.90
2018-04-07T00:32:36.044Z,99.90
2018-04-07T00:35:04.945Z,99.90
2018-04-07T00:37:33.873Z,99.90
2018-04-07T00:40:02.759Z,99.90
2018-04-07T00:42:32.437Z,99.90
2018-04-07T00:45:01.775Z,99.90
2018-04-07T00:47:32.159Z,99.90
2018-04-07T00:50:01.838Z,99.90
2018-04-07T00:52:43.490Z,99.90
2018-04-07T00:55:12.383Z,99.90
2018-04-07T00:57:42.200Z,99.90
2018-04-07T01:00:11.477Z,99.90
2018-04-07T01:02:40.363Z,99.90
2018-04-07T01:05:10.296Z,99.90
2018-04-07T01:07:39.185Z,99.90
2018-04-07T01:10:09.406Z,99.90
2018-04-07T01:12:38.348Z,99.90
2018-04-07T01:15:07.273Z,99.90
2018-04-07T01:17:36.319Z,99.90
2018-04-07T01:20:05.685Z,99.90
2018-04-07T01:22:34.572Z,99.90
2018-04-07T01:25:04.249Z,99.90
2018-04-07T01:27:33.547Z,99.90
2018-04-07T01:30:02.470Z,99.90
2018-04-07T01:32:31.381Z,99.90
2018-04-07T01:35:01.032Z,99.90
2018-04-07T01:37:29.934Z,99.90
2018-04-07T01:39:58.845Z,99.90
2018-04-07T01:42:27.916Z,99.90
2018-04-07T01:44:57.564Z,99.90
2018-04-07T01:47:27.220Z,99.90
2018-04-07T01:49:56.145Z,99.90
2018-04-07T01:52:25.053Z,99.90
2018-04-07T01:54:54.739Z,99.90
2018-04-07T01:57:24.394Z,99.90
2018-04-07T01:59:53.692Z,99.90
2018-04-07T02:02:23.033Z,99.90
2018-04-07T02:04:52.329Z,99.90
2018-04-07T02:07:21.226Z,99.90
2018-04-07T02:09:50.140Z,99.90
2018-04-07T02:12:19.467Z,99.90
2018-04-07T02:14:48.355Z,99.90
2018-04-07T02:17:17.272Z,99.90
2018-04-07T02:19:46.170Z,99.90
2018-04-07T02:22:15.490Z,99.90
2018-04-07T02:24:44.359Z,99.90
2018-04-07T02:27:14.008Z,99.90
2018-04-07T02:29:43.692Z,99.90
2018-04-07T02:32:12.990Z,99.90
2018-04-07T02:34:41.917Z,99.90
2018-04-07T02:37:11.580Z,99.90
2018-04-07T02:39:41.252Z,99.90
2018-04-07T02:42:10.158Z,99.90
2018-04-07T02:44:39.061Z,99.90
2018-04-07T02:47:07.956Z,99.90
2018-04-07T02:49:37.272Z,99.90
2018-04-07T02:52:07.278Z,99.90
2018-04-07T02:54:36.201Z,99.90
2018-04-07T02:57:05.091Z,99.90
2018-04-07T02:59:33.996Z,99.90
2018-04-07T03:02:03.680Z,99.90
2018-04-07T03:04:32.583Z,99.90
2018-04-07T03:07:01.893Z,99.90
2018-04-07T03:09:31.554Z,99.90
2018-04-07T03:12:00.436Z,99.90
2018-04-07T03:14:29.363Z,99.90
2018-04-07T03:16:58.260Z,99.90
2018-04-07T03:19:27.941Z,99.90
2018-04-07T03:21:56.823Z,99.90
2018-04-07T03:24:25.720Z,99.90
2018-04-07T03:26:54.638Z,99.90
2018-04-07T03:29:23.523Z,99.90
2018-04-07T03:31:52.432Z,99.90
2018-04-07T03:34:21.367Z,99.90
2018-04-07T03:36:50.673Z,99.90
2018-04-07T03:39:19.565Z,99.90
2018-04-07T03:41:48.483Z,99.90
2018-04-07T03:44:17.393Z,99.90
2018-04-07T03:46:47.052Z,99.90
2018-04-07T03:49:15.961Z,99.90
2018-04-07T03:51:44.861Z,99.90
2018-04-07T03:54:13.763Z,99.90
2018-04-07T03:56:43.072Z,99.90
2018-04-07T03:59:12.731Z,99.90
2018-04-07T04:01:41.635Z,99.90
2018-04-07T04:04:10.557Z,99.90
2018-04-07T04:06:40.201Z,99.90
2018-04-07T04:09:09.147Z,99.90
2018-04-07T04:11:38.027Z,99.90
2018-04-07T04:14:07.310Z,99.90
2018-04-07T04:16:37.737Z,99.90
2018-04-07T04:19:06.630Z,99.90
2018-04-07T04:21:36.287Z,99.90
2018-04-07T04:24:05.200Z,99.90
2018-04-07T04:26:34.105Z,99.90
2018-04-07T04:29:02.988Z,99.90
2018-04-07T04:31:31.896Z,99.90
2018-04-07T04:34:01.180Z,99.90
2018-04-07T04:36:30.151Z,99.90
2018-04-07T04:38:58.996Z,99.90
2018-04-07T04:41:27.899Z,99.90
2018-04-07T04:43:57.575Z,99.90
2018-04-07T04:46:26.878Z,99.90
2018-04-07T04:48:55.804Z,99.90
2018-04-07T04:51:25.457Z,99.90
2018-04-07T04:53:54.349Z,99.90
2018-04-07T04:56:23.249Z,99.90
2018-04-07T04:58:52.140Z,99.90
2018-04-07T05:01:21.048Z,99.90
2018-04-07T05:03:49.937Z,99.90
2018-04-07T05:06:19.595Z,99.90
2018-04-07T05:08:48.515Z,99.90
2018-04-07T05:11:17.397Z,99.90
2018-04-07T05:13:46.302Z,99.90
2018-04-07T05:16:15.977Z,99.90
2018-04-07T05:18:44.878Z,99.90
2018-04-07T05:21:13.788Z,99.90
2018-04-07T05:23:42.811Z,99.90
2018-04-07T05:26:11.761Z,99.90
2018-04-07T05:28:40.666Z,99.90
2018-04-07T05:31:10.369Z,99.90
2018-04-07T05:33:39.255Z,99.90
2018-04-07T05:36:08.144Z,99.90
2018-04-07T05:38:37.483Z,99.90
2018-04-07T05:41:06.420Z,99.90
2018-04-07T05:43:35.366Z,99.90
2018-04-07T05:46:05.767Z,99.90
2018-04-07T05:48:34.680Z,99.90
2018-04-07T05:51:04.336Z,99.90
2018-04-07T05:53:33.248Z,99.90
2018-04-07T05:56:02.992Z,99.90
2018-04-07T05:58:31.890Z,99.90
2018-04-07T06:01:01.561Z,99.90
2018-04-07T06:03:30.458Z,99.90
2018-04-07T06:06:00.165Z,99.90
2018-04-07T06:08:29.053Z,99.90
2018-04-07T06:10:57.985Z,99.90
2018-04-07T06:13:26.962Z,99.90
2018-04-07T06:15:55.953Z,99.90
2018-04-07T06:18:24.846Z,99.90
2018-04-07T06:20:53.741Z,99.90
2018-04-07T06:23:23.411Z,99.90
2018-04-07T06:25:52.314Z,99.90
2018-04-07T06:28:23.355Z,99.90
2018-04-07T06:30:52.824Z,99.90
2018-04-07T06:33:22.941Z,99.90
2018-04-07T06:35:51.934Z,99.90
2018-04-07T06:38:20.872Z,99.90
2018-04-07T06:40:49.835Z,99.90
2018-04-07T06:43:20.040Z,99.90
2018-04-07T06:45:48.952Z,99.90
2018-04-07T06:48:21.090Z,99.90
2018-04-07T06:50:51.642Z,99.90
2018-04-07T06:53:21.687Z,99.90
2018-04-07T06:55:50.611Z,99.90
2018-04-07T06:58:20.408Z,99.90
2018-04-07T07:00:49.744Z,99.90
2018-04-07T07:03:18.641Z,99.10
2018-04-07T07:05:47.998Z,99.90
2018-04-07T07:08:18.475Z,97.90
2018-04-07T07:10:47.446Z,97.10
2018-04-07T07:13:17.254Z,93.40
2018-04-07T07:15:47.426Z,95.40
2018-04-07T07:18:16.553Z,93.50
2018-04-07T07:20:46.168Z,90.40
2018-04-07T07:23:15.925Z,90.80
2018-04-07T07:25:46.000Z,92.20
2018-04-07T07:28:14.905Z,88.40
2018-04-07T07:30:44.260Z,90.70
2018-04-07T07:33:13.931Z,87.40
2018-04-07T07:35:42.962Z,88.40
2018-04-07T07:38:11.881Z,88.60
2018-04-07T07:40:41.284Z,80.80
2018-04-07T07:43:10.273Z,82.40
2018-04-07T07:45:39.182Z,71.00
2018-04-07T07:48:08.082Z,76.50
2018-04-07T07:50:38.357Z,67.80
2018-04-07T07:53:08.314Z,67.50
2018-04-07T07:55:37.254Z,76.90
2018-04-07T07:58:07.715Z,70.00
2018-04-07T08:00:36.624Z,68.30
2018-04-07T08:03:07.557Z,68.70
2018-04-07T08:05:36.611Z,65.90
2018-04-07T08:08:06.734Z,64.80
2018-04-07T08:10:36.032Z,67.80
2018-04-07T08:13:07.388Z,67.70
2018-04-07T08:15:38.416Z,64.10
2018-04-07T08:18:09.004Z,62.90
2018-04-07T08:20:38.354Z,67.70
2018-04-07T08:23:08.045Z,63.40
2018-04-07T08:25:39.086Z,63.10
2018-04-07T08:28:08.009Z,62.00
2018-04-07T08:30:38.761Z,57.80
2018-04-07T08:33:08.434Z,63.80
2018-04-07T08:35:38.791Z,60.20
2018-04-07T08:38:07.976Z,58.30
2018-04-07T08:40:37.746Z,59.30
2018-04-07T08:43:08.363Z,60.90
2018-04-07T08:45:38.535Z,61.70
2018-04-07T08:48:08.357Z,62.70
2018-04-07T08:50:37.332Z,58.90
2018-04-07T08:53:07.117Z,59.30
2018-04-07T08:55:37.507Z,56.80
2018-04-07T08:58:07.245Z,55.80
2018-04-07T09:00:36.912Z,56.30
2018-04-07T09:03:06.596Z,57.50
2018-04-07T09:05:35.931Z,54.20
2018-04-07T09:08:05.309Z,54.20
2018-04-07T09:10:34.777Z,58.00
2018-04-07T09:13:03.685Z,58.00
2018-04-07T09:15:34.404Z,56.00
2018-04-07T09:18:04.121Z,55.70
2018-04-07T09:20:35.906Z,54.10
2018-04-07T09:23:05.261Z,56.50
2018-04-07T09:25:35.071Z,56.40
2018-04-07T09:28:05.368Z,54.40
2018-04-07T09:30:36.761Z,54.80
2018-04-07T09:33:06.455Z,55.10
2018-04-07T09:35:36.143Z,53.50
2018-04-07T09:38:05.084Z,55.20
2018-04-07T09:40:34.313Z,54.50
2018-04-07T09:43:07.288Z,52.50
2018-04-07T09:45:36.387Z,52.60
2018-04-07T09:48:05.712Z,50.60
2018-04-07T09:50:34.896Z,53.90
2018-04-07T09:53:03.822Z,53.10
2018-04-07T09:55:33.551Z,52.60
2018-04-07T09:58:03.792Z,53.10
2018-04-07T10:00:33.862Z,55.30
2018-04-07T10:03:03.161Z,53.10
2018-04-07T10:05:32.872Z,52.60
2018-04-07T10:08:01.768Z,51.00
2018-04-07T10:10:31.424Z,50.10
2018-04-07T10:13:01.873Z,49.70
2018-04-07T10:15:31.985Z,51.70
2018-04-07T10:18:02.274Z,50.10
2018-04-07T10:20:31.155Z,50.40
2018-04-07T10:23:00.082Z,49.50
2018-04-07T10:25:29.044Z,50.50
2018-04-07T10:27:58.715Z,48.80
2018-04-07T10:30:28.546Z,49.40
2018-04-07T10:32:57.869Z,49.10
2018-04-07T10:35:26.768Z,48.40
2018-04-07T10:37:56.444Z,46.90
2018-04-07T10:40:25.413Z,47.30
2018-04-07T10:42:54.316Z,45.70
2018-04-07T10:45:23.297Z,44.40
2018-04-07T10:47:52.252Z,45.10
2018-04-07T10:50:21.906Z,46.50
2018-04-07T10:52:51.751Z,46.30
2018-04-07T10:55:20.709Z,47.90
2018-04-07T10:57:50.405Z,46.00
2018-04-07T11:00:19.729Z,44.50
2018-04-07T11:02:48.637Z,42.90
2018-04-07T11:05:17.994Z,42.50
2018-04-07T11:07:46.890Z,43.20
2018-04-07T11:10:16.550Z,43.30
2018-04-07T11:12:45.492Z,41.40
2018-04-07T11:15:15.283Z,43.70
2018-04-07T11:17:44.583Z,41.00
2018-04-07T11:20:14.736Z,43.60
2018-04-07T11:22:43.658Z,43.50
2018-04-07T11:25:13.351Z,40.10
2018-04-07T11:27:42.278Z,42.20
2018-04-07T11:30:11.180Z,40.10
2018-04-07T11:32:41.137Z,40.70
2018-04-07T11:35:10.036Z,39.20
2018-04-07T11:37:38.984Z,40.00
2018-04-07T11:40:07.978Z,40.20
2018-04-07T11:42:38.369Z,38.80
2018-04-07T11:45:07.441Z,39.00
2018-04-07T11:47:37.085Z,38.70
2018-04-07T11:50:06.018Z,38.10
2018-04-07T11:52:35.690Z,39.30
2018-04-07T11:55:05.000Z,39.70
2018-04-07T11:57:34.669Z,37.90
2018-04-07T12:00:03.564Z,37.90
2018-04-07T12:02:32.604Z,36.40
2018-04-07T12:05:01.417Z,35.90
2018-04-07T12:07:31.141Z,35.70
2018-04-07T12:10:00.901Z,35.70
2018-04-07T12:12:29.903Z,34.50
2018-04-07T12:14:59.559Z,35.80
2018-04-07T12:17:28.463Z,33.80
2018-04-07T12:19:57.393Z,33.20
2018-04-07T12:22:27.061Z,34.50
2018-04-07T12:24:56.724Z,32.80
2018-04-07T12:27:25.649Z,33.00
2018-04-07T12:29:55.310Z,33.70
2018-04-07T12:32:25.011Z,33.40
2018-04-07T12:34:54.690Z,32.60
2018-04-07T12:37:23.576Z,33.20
2018-04-07T12:39:52.489Z,33.70
2018-04-07T12:42:22.164Z,33.30
2018-04-07T12:44:51.075Z,30.00
2018-04-07T12:47:20.006Z,31.30
2018-04-07T12:49:48.946Z,31.90
2018-04-07T12:52:18.619Z,31.80
2018-04-07T12:54:48.294Z,32.30
2018-04-07T12:57:17.982Z,33.30
2018-04-07T12:59:47.683Z,30.70
2018-04-07T13:02:16.597Z,29.60
2018-04-07T13:04:46.282Z,30.10
2018-04-07T13:07:15.607Z,28.60
2018-04-07T13:09:45.279Z,29.60
2018-04-07T13:12:14.160Z,29.50
2018-04-07T13:14:43.088Z,29.80
2018-04-07T13:17:12.758Z,31.00
2018-04-07T13:19:42.089Z,31.30
2018-04-07T13:22:11.086Z,31.30
2018-04-07T13:24:40.016Z,30.50
2018-04-07T13:27:09.648Z,28.70
2018-04-07T13:29:38.576Z,29.30
2018-04-07T13:32:07.448Z,28.90
2018-04-07T13:34:36.764Z,28.60
2018-04-07T13:37:06.471Z,27.60
2018-04-07T13:39:35.384Z,27.10
2018-04-07T13:42:04.352Z,27.80
2018-04-07T13:53:17.216Z,27.60
2018-04-07T13:55:46.888Z,27.50
2018-04-07T13:58:15.828Z,28.20
2018-04-07T14:00:45.133Z,27.70
2018-04-07T14:03:14.830Z,26.50
2018-04-07T14:05:43.822Z,26.10
2018-04-07T14:08:12.700Z,25.50
2018-04-07T14:10:42.403Z,25.80
2018-04-07T14:13:11.689Z,24.30
2018-04-07T14:15:40.610Z,23.90
2018-04-07T14:18:10.315Z,24.80
2018-04-07T14:20:40.730Z,25.40
2018-04-07T14:23:09.632Z,23.80
2018-04-07T14:25:39.319Z,23.70
2018-04-07T14:28:08.245Z,22.90
2018-04-07T14:30:37.536Z,21.70
2018-04-07T14:33:07.780Z,23.20
2018-04-07T14:35:38.015Z,24.00
2018-04-07T14:38:07.662Z,26.10
2018-04-07T14:40:38.085Z,26.80
2018-04-07T14:43:07.017Z,28.20
2018-04-07T14:45:36.655Z,30.00
2018-04-07T14:48:06.336Z,30.10
2018-04-07T14:50:35.632Z,30.60
2018-04-07T14:53:04.524Z,29.70
2018-04-07T14:55:33.862Z,29.60
2018-04-07T14:58:03.136Z,28.40
2018-04-07T15:00:32.027Z,27.20
2018-04-07T15:03:01.078Z,27.60
2018-04-07T15:05:30.616Z,28.40
2018-04-07T15:08:00.206Z,27.10
2018-04-07T15:10:29.133Z,26.90
2018-04-07T15:12:58.879Z,27.20
2018-04-07T15:15:29.993Z,28.80
2018-04-07T15:17:58.895Z,28.90
2018-04-07T15:20:29.924Z,29.40
2018-04-07T15:22:58.844Z,29.60
2018-04-07T15:25:28.781Z,30.00
2018-04-07T15:27:57.755Z,28.90
2018-04-07T15:30:27.425Z,28.70
2018-04-07T15:32:56.348Z,27.00
2018-04-07T15:35:26.017Z,26.30
2018-04-07T15:37:56.139Z,25.40
2018-04-07T15:40:25.862Z,25.80
2018-04-07T15:42:54.800Z,25.60
2018-04-07T15:45:24.078Z,25.60
2018-04-07T15:47:53.406Z,25.90
2018-04-07T15:50:22.778Z,26.90
2018-04-07T15:52:52.139Z,27.30
2018-04-07T15:55:21.963Z,26.60
2018-04-07T15:57:50.976Z,27.40
2018-04-07T16:00:19.881Z,28.10
2018-04-07T16:02:49.678Z,27.70
2018-04-07T16:08:13.680Z,27.90
2018-04-07T16:10:42.646Z,27.80
2018-04-07T16:13:12.832Z,28.40
2018-04-07T16:15:41.836Z,28.00
2018-04-07T16:18:11.515Z,27.80
2018-04-07T16:20:41.228Z,28.50
2018-04-07T16:23:12.507Z,28.80
2018-04-07T16:25:41.452Z,28.80
2018-04-07T16:28:10.803Z,28.60
2018-04-07T16:30:40.919Z,29.60
2018-04-07T16:33:10.621Z,28.60
2018-04-07T16:35:39.554Z,29.00
2018-04-07T16:38:11.114Z,29.70
2018-04-07T16:40:40.411Z,29.70
2018-04-07T16:43:10.094Z,31.00
2018-04-07T16:45:40.634Z,31.70
2018-04-07T16:48:09.538Z,30.60
2018-04-07T16:50:38.506Z,31.20
2018-04-07T16:53:08.428Z,31.60
2018-04-07T16:55:38.170Z,32.40
2018-04-07T16:58:07.098Z,32.30
2018-04-07T17:00:37.967Z,33.10
2018-04-07T17:03:06.871Z,32.60
2018-04-07T17:05:36.479Z,33.60
2018-04-07T17:08:05.883Z,34.80
2018-04-07T17:10:35.881Z,35.80
2018-04-07T17:13:05.231Z,36.30
2018-04-07T17:15:34.770Z,37.60
2018-04-07T17:18:03.727Z,37.10
2018-04-07T17:20:33.061Z,37.30
2018-04-07T17:23:01.986Z,38.20
2018-04-07T17:25:30.891Z,38.70
2018-04-07T17:27:59.801Z,38.50
2018-04-07T17:30:28.721Z,39.60
2018-04-07T17:32:58.389Z,39.70
2018-04-07T17:35:27.306Z,40.70
2018-04-07T17:37:56.224Z,40.90
2018-04-07T17:40:25.177Z,40.80
2018-04-07T17:42:54.210Z,41.60
2018-04-07T17:45:23.109Z,42.00
2018-04-07T17:47:52.028Z,42.40
2018-04-07T17:50:20.941Z,42.40
2018-04-07T17:52:50.305Z,42.70
2018-04-07T17:55:19.196Z,43.60
2018-04-07T17:57:48.545Z,44.00
2018-04-07T18:00:18.397Z,43.80
2018-04-07T18:02:48.115Z,44.30
2018-04-07T18:05:17.772Z,45.50
2018-04-07T18:07:46.667Z,45.90
2018-04-07T18:10:15.589Z,46.30
2018-04-07T18:12:44.501Z,46.80
2018-04-07T18:15:13.812Z,48.00
2018-04-07T18:17:42.759Z,48.40
2018-04-07T18:20:11.662Z,48.70
2018-04-07T18:22:40.589Z,49.80
2018-04-07T18:25:09.546Z,50.30
2018-04-07T18:27:38.560Z,51.50
2018-04-07T18:30:07.879Z,52.90
2018-04-07T18:32:36.820Z,53.80
2018-04-07T18:35:06.500Z,53.70
2018-04-07T18:37:35.415Z,54.90
2018-04-07T18:40:05.111Z,56.60
2018-04-07T18:42:34.932Z,56.40
2018-04-07T18:45:03.832Z,58.90
2018-04-07T18:47:32.819Z,60.20
2018-04-07T18:50:01.665Z,61.40
2018-04-07T18:52:30.577Z,62.00
2018-04-07T18:54:59.902Z,61.10
2018-04-07T18:57:28.805Z,66.30
2018-04-07T18:59:57.749Z,70.60
2018-04-07T19:02:27.116Z,74.30
2018-04-07T19:04:56.830Z,71.40
2018-04-07T19:07:25.711Z,76.60
2018-04-07T19:09:55.065Z,83.60
2018-04-07T19:12:23.968Z,88.20
2018-04-07T19:14:52.949Z,94.60
2018-04-07T19:17:24.287Z,91.90
2018-04-07T19:19:56.959Z,97.80
2018-04-07T19:22:27.449Z,99.20
2018-04-07T19:24:56.359Z,99.90
2018-04-07T19:27:26.068Z,99.90
2018-04-07T19:29:55.003Z,99.90
2018-04-07T19:32:24.707Z,99.90
2018-04-07T19:34:54.509Z,99.90
2018-04-07T19:37:24.192Z,99.90
2018-04-07T19:39:53.903Z,99.90
2018-04-07T19:42:23.791Z,99.90
2018-04-07T19:44:52.733Z,99.90
2018-04-07T19:47:22.478Z,99.90
2018-04-07T19:49:51.457Z,99.90
2018-04-07T19:52:21.241Z,99.90
2018-04-07T19:54:50.179Z,99.90
2018-04-07T19:57:19.864Z,99.90
2018-04-07T19:59:49.620Z,99.90
2018-04-07T20:02:18.926Z,99.90
2018-04-07T20:04:49.378Z,99.90
2018-04-07T20:07:19.057Z,99.90
2018-04-07T20:09:48.027Z,99.90
2018-04-07T20:12:16.981Z,99.90
2018-04-07T20:14:46.676Z,99.90
2018-04-07T20:17:16.047Z,99.90
2018-04-07T20:19:45.767Z,99.90
2018-04-07T20:22:15.474Z,99.90
2018-04-07T20:24:45.170Z,99.90
2018-04-07T20:27:14.478Z,99.90
2018-04-07T20:29:43.494Z,99.90
2018-04-07T20:32:13.184Z,99.90
2018-04-07T20:34:42.493Z,99.90
2018-04-07T20:37:11.812Z,99.90
2018-04-07T20:39:41.518Z,99.90
2018-04-07T20:42:22.731Z,99.90
2018-04-07T20:44:51.669Z,99.90
2018-04-07T20:47:23.376Z,99.90
2018-04-07T20:49:52.701Z,99.90
2018-04-07T20:52:21.626Z,99.90
2018-04-07T20:54:50.984Z,99.90
2018-04-07T20:57:20.682Z,99.90
2018-04-07T20:59:49.724Z,99.90
2018-04-07T21:02:18.658Z,99.90
2018-04-07T21:04:47.604Z,99.90
2018-04-07T21:07:16.908Z,99.90
2018-04-07T21:09:46.596Z,99.90
2018-04-07T21:12:15.541Z,99.90
2018-04-07T21:14:45.227Z,99.90
2018-04-07T21:17:14.574Z,99.90
2018-04-07T21:19:44.256Z,99.90
2018-04-07T21:22:13.196Z,99.90
2018-04-07T21:24:42.616Z,99.90
2018-04-07T21:27:11.503Z,99.90
2018-04-07T21:29:41.213Z,99.90
2018-04-07T21:32:11.617Z,99.90
2018-04-07T21:34:40.518Z,99.90
2018-04-07T21:37:09.450Z,99.90
2018-04-07T21:39:38.407Z,99.90
2018-04-07T21:42:07.338Z,99.90
2018-04-07T21:44:36.227Z,99.90
2018-04-07T21:47:05.135Z,99.90
2018-04-07T21:49:34.063Z,99.90
2018-04-07T21:52:02.984Z,99.90
2018-04-07T21:54:32.358Z,99.90
2018-04-07T21:57:01.248Z,99.90
2018-04-07T21:59:30.923Z,99.90
2018-04-07T22:02:00.282Z,99.90
2018-04-07T22:04:29.568Z,99.90
2018-04-07T22:06:58.950Z,99.90
2018-04-07T22:09:27.861Z,99.90
2018-04-07T22:11:57.528Z,99.90
2018-04-07T22:14:26.462Z,99.90
2018-04-07T22:16:55.380Z,99.90
2018-04-07T22:19:24.277Z,99.90
2018-04-07T22:21:53.196Z,99.90
2018-04-07T22:24:22.100Z,99.90
2018-04-07T22:26:51.045Z,99.90
2018-04-07T22:29:19.950Z,99.90
2018-04-07T22:31:49.229Z,99.90
2018-04-07T22:34:19.298Z,99.90
2018-04-07T22:36:48.980Z,99.90
2018-04-07T22:39:18.651Z,99.90
2018-04-07T22:41:48.704Z,99.90
2018-04-07T22:44:17.613Z,99.90
2018-04-07T22:46:46.926Z,99.90
2018-04-07T22:49:16.598Z,99.90
2018-04-07T22:51:46.274Z,99.90
2018-04-07T22:54:15.195Z,99.90
2018-04-07T22:56:44.909Z,99.90
2018-04-07T22:59:13.821Z,99.90
2018-04-07T23:01:42.731Z,99.90
2018-04-07T23:04:11.650Z,99.90
2018-04-07T23:06:40.582Z,99.90
2018-04-07T23:09:09.595Z,99.90
2018-04-07T23:11:39.287Z,99.90
2018-04-07T23:14:08.200Z,99.90
2018-04-07T23:16:37.885Z,99.90
2018-04-07T23:19:06.808Z,99.90
2018-04-07T23:21:36.489Z,99.90
2018-04-07T23:24:05.429Z,99.90
2018-04-07T23:26:34.328Z,99.90
2018-04-07T23:29:03.622Z,99.90
2018-04-07T23:31:32.557Z,99.90
2018-04-07T23:34:01.565Z,99.90
2018-04-07T23:36:31.261Z,99.90
2018-04-07T23:39:00.171Z,99.90
2018-04-07T23:41:29.085Z,99.90
2018-04-07T23:43:58.111Z,99.90
2018-04-07T23:46:27.039Z,99.90
2018-04-07T23:48:56.698Z,99.90
2018-04-07T23:51:26.047Z,99.90
2018-04-07T23:53:55.721Z,99.90
2018-04-07T23:56:24.639Z,99.90
2018-04-07T23:58:53.964Z,99.90
